createdAt,value
2023-02-08T00:00:45.230Z,102892.11
2023-02-08T00:03:12.718Z,102896.60
2023-02-08T00:05:42.337Z,102900.54
2023-02-08T00:08:09.466Z,102904.94
2023-02-08T00:10:36.419Z,102909.45
2023-02-08T00:13:03.377Z,102912.31
2023-02-08T00:15:30.261Z,102913.38
2023-02-08T00:17:57.165Z,102917.02
2023-02-08T00:20:24.225Z,102916.23
2023-02-08T00:22:52.578Z,102920.39
2023-02-08T00:25:21.812Z,102923.13
2023-02-08T00:27:48.788Z,102917.03
2023-02-08T00:30:16.217Z,102915.20
2023-02-08T00:32:43.065Z,102910.98
2023-02-08T00:35:10.028Z,102915.80
2023-02-08T00:37:36.974Z,102918.38
2023-02-08T00:40:06.072Z,102918.73
2023-02-08T00:42:33.020Z,102920.70
2023-02-08T00:44:59.969Z,102918.54
2023-02-08T00:47:26.864Z,102921.51
2023-02-08T00:49:53.914Z,102919.89
2023-02-08T00:52:21.176Z,102921.35
2023-02-08T00:54:48.133Z,102923.17
2023-02-08T00:57:15.280Z,102927.60
2023-02-08T00:59:42.679Z,102929.84
2023-02-08T01:02:09.607Z,102931.17
2023-02-08T01:04:36.871Z,102932.89
2023-02-08T01:07:05.299Z,102931.70
2023-02-08T01:09:32.669Z,102933.60
2023-02-08T01:11:59.752Z,102934.89
2023-02-08T01:14:27.011Z,102932.83
2023-02-08T01:16:53.873Z,102930.67
2023-02-08T01:19:20.920Z,102932.83
2023-02-08T01:21:49.436Z,102938.09
2023-02-08T01:24:16.302Z,102940.12
2023-02-08T01:26:44.399Z,102941.95
2023-02-08T01:29:11.240Z,102939.10
2023-02-08T01:31:41.500Z,102940.23
2023-02-08T01:34:09.841Z,102942.38
2023-02-08T01:36:37.968Z,102942.27
2023-02-08T01:39:06.404Z,102942.31
2023-02-08T01:41:36.150Z,102946.12
2023-02-08T01:44:11.902Z,102950.17
2023-02-08T01:46:43.686Z,102948.91
2023-02-08T01:49:10.452Z,102943.15
2023-02-08T01:51:47.313Z,102942.67
2023-02-08T01:54:17.563Z,102941.73
2023-02-08T01:56:47.308Z,102944.64
2023-02-08T01:59:23.680Z,102946.47
2023-02-08T02:01:54.549Z,102951.11
2023-02-08T02:04:22.036Z,102951.59
2023-02-08T02:06:53.569Z,102956.21
2023-02-08T02:09:26.609Z,102960.41
2023-02-08T02:11:54.844Z,102964.04
2023-02-08T02:14:22.745Z,102962.77
2023-02-08T02:16:49.799Z,102961.33
2023-02-08T02:19:40.668Z,102959.44
2023-02-08T02:22:22.877Z,102962.44
2023-02-08T02:25:04.775Z,102964.83
2023-02-08T02:27:59.196Z,102964.11
2023-02-08T02:30:45.090Z,102966.05
2023-02-08T02:33:24.013Z,102970.52
2023-02-08T02:36:03.459Z,102970.86
2023-02-08T02:39:25.912Z,102976.38
2023-02-08T02:43:02.209Z,102975.90
2023-02-08T02:45:34.862Z,102980.89
2023-02-08T02:48:11.709Z,102985.36
2023-02-08T02:51:14.074Z,102987.34
2023-02-08T02:54:00.157Z,102988.61
2023-02-08T02:56:37.225Z,102989.46
2023-02-08T02:59:10.231Z,102989.39
2023-02-08T03:01:38.879Z,102988.63
2023-02-08T03:04:19.434Z,102987.40
2023-02-08T03:06:52.608Z,102988.77
2023-02-08T03:09:28.414Z,102990.72
2023-02-08T03:12:29.549Z,102992.63
2023-02-08T03:15:13.398Z,102992.97
2023-02-08T03:17:54.322Z,102994.16
2023-02-08T03:20:53.794Z,102992.73
2023-02-08T03:23:49.515Z,102988.37
2023-02-08T03:26:23.952Z,102991.77
2023-02-08T03:28:58.918Z,103000.09
2023-02-08T03:31:38.150Z,103004.10
2023-02-08T03:34:14.383Z,103005.05
2023-02-08T03:37:04.794Z,103008.23
2023-02-08T03:39:35.792Z,103009.14
2023-02-08T03:42:09.511Z,103008.08
2023-02-08T03:44:44.517Z,103008.86
2023-02-08T03:47:22.086Z,103016.17
2023-02-08T03:49:52.850Z,103018.89
2023-02-08T03:52:20.183Z,103017.33
2023-02-08T03:54:54.863Z,103013.84
2023-02-08T03:57:26.154Z,103017.34
2023-02-08T04:00:07.623Z,103019.36
2023-02-08T04:02:46.569Z,103020.74
2023-02-08T04:05:13.986Z,103020.81
2023-02-08T04:07:40.992Z,103023.45
2023-02-08T04:10:08.484Z,103025.42
2023-02-08T04:12:36.076Z,103022.48
2023-02-08T04:15:03.095Z,103023.99
2023-02-08T04:17:30.000Z,103024.41
2023-02-08T04:19:56.794Z,103028.08
2023-02-08T04:22:23.823Z,103026.37
2023-02-08T04:24:51.003Z,103027.81
2023-02-08T04:27:17.892Z,103028.13
2023-02-08T04:29:44.707Z,103029.63
2023-02-08T04:32:11.988Z,103031.08
2023-02-08T04:34:39.882Z,103032.29
2023-02-08T04:37:08.332Z,103033.55
2023-02-08T04:39:35.489Z,103034.17
2023-02-08T04:42:03.365Z,103035.14
2023-02-08T04:44:33.064Z,103034.69
2023-02-08T04:47:00.894Z,103034.29
2023-02-08T04:49:27.835Z,103034.98
2023-02-08T04:51:54.666Z,103036.42
2023-02-08T04:54:22.123Z,103036.06
2023-02-08T04:56:48.958Z,103037.61
2023-02-08T04:59:16.102Z,103042.17
2023-02-08T05:01:42.966Z,103043.38
2023-02-08T05:04:10.006Z,103046.15
2023-02-08T05:06:36.945Z,103047.64
2023-02-08T05:09:03.961Z,103047.52
2023-02-08T05:11:30.992Z,103045.60
2023-02-08T05:13:57.857Z,103046.39
2023-02-08T05:16:24.832Z,103050.55
2023-02-08T05:18:51.668Z,103051.39
2023-02-08T05:21:18.523Z,103055.56
2023-02-08T05:23:46.846Z,103064.34
2023-02-08T05:26:13.916Z,103067.36
2023-02-08T05:28:40.720Z,103067.91
2023-02-08T05:31:18.427Z,103070.40
2023-02-08T05:33:45.563Z,103074.75
2023-02-08T05:36:12.630Z,103077.38
2023-02-08T05:38:39.433Z,103081.58
2023-02-08T05:41:06.364Z,103087.15
2023-02-08T05:43:33.321Z,103086.45
2023-02-08T05:46:00.236Z,103082.94
2023-02-08T05:48:27.254Z,103088.33
2023-02-08T05:50:54.460Z,103095.34
2023-02-08T05:53:21.291Z,103100.11
2023-02-08T05:55:48.850Z,103101.36
2023-02-08T05:58:16.338Z,103103.52
2023-02-08T06:00:44.050Z,103104.45
2023-02-08T06:03:11.710Z,103106.05
2023-02-08T06:05:40.246Z,103113.62
2023-02-08T06:08:07.844Z,103115.45
2023-02-08T06:10:35.626Z,103115.84
2023-02-08T06:13:03.218Z,103113.23
2023-02-08T06:15:30.330Z,103116.13
2023-02-08T06:17:57.296Z,103115.20
2023-02-08T06:20:24.250Z,103121.69
2023-02-08T06:22:51.136Z,103125.24
2023-02-08T06:25:18.090Z,103126.69
2023-02-08T06:27:45.003Z,103133.58
2023-02-08T06:30:13.112Z,103135.02
2023-02-08T06:32:40.017Z,103134.14
2023-02-08T06:35:07.834Z,103130.64
2023-02-08T06:37:34.708Z,103131.70
2023-02-08T06:40:02.169Z,103132.04
2023-02-08T06:42:29.118Z,103132.20
2023-02-08T06:44:56.140Z,103131.86
2023-02-08T06:47:24.071Z,103131.54
2023-02-08T06:49:51.640Z,103136.39
2023-02-08T06:52:19.364Z,103140.21
2023-02-08T06:54:46.241Z,103139.30
2023-02-08T06:57:13.506Z,103140.95
2023-02-08T06:59:42.029Z,103142.90
2023-02-08T07:02:18.552Z,103149.00
2023-02-08T07:04:45.784Z,103154.58
2023-02-08T07:07:13.905Z,103157.73
2023-02-08T07:09:40.846Z,103160.73
2023-02-08T07:12:08.225Z,103163.46
2023-02-08T07:14:39.279Z,103166.09
2023-02-08T07:17:06.677Z,103170.77
2023-02-08T07:19:33.602Z,103176.71
2023-02-08T07:22:07.252Z,103181.02
2023-02-08T07:24:43.335Z,103186.05
2023-02-08T07:27:12.812Z,103181.31
2023-02-08T07:29:40.608Z,103180.14
2023-02-08T07:32:08.615Z,103181.91
2023-02-08T07:34:37.385Z,103182.08
2023-02-08T07:37:05.225Z,103181.35
2023-02-08T07:39:32.454Z,103180.99
2023-02-08T07:41:59.813Z,103182.19
2023-02-08T07:44:28.407Z,103182.45
2023-02-08T07:46:55.244Z,103179.11
2023-02-08T07:49:22.270Z,103178.65
2023-02-08T07:51:49.204Z,103181.60
2023-02-08T07:54:16.262Z,103178.46
2023-02-08T07:56:43.040Z,103181.88
2023-02-08T07:59:10.579Z,103177.70
2023-02-08T08:01:37.492Z,103179.09
2023-02-08T08:04:04.751Z,103181.67
2023-02-08T08:06:31.928Z,103180.31
2023-02-08T08:08:58.825Z,103185.59
2023-02-08T08:11:25.896Z,103191.24
2023-02-08T08:13:53.379Z,103190.29
2023-02-08T08:16:20.702Z,103192.16
2023-02-08T08:18:47.858Z,103196.13
2023-02-08T08:21:16.851Z,103196.47
2023-02-08T08:23:44.212Z,103196.06
2023-02-08T08:26:14.607Z,103198.14
2023-02-08T08:28:42.221Z,103199.89
2023-02-08T08:31:18.332Z,103200.20
2023-02-08T08:33:45.631Z,103197.91
2023-02-08T08:36:13.073Z,103200.23
2023-02-08T08:38:41.192Z,103204.21
2023-02-08T08:41:10.367Z,103207.45
2023-02-08T08:43:37.674Z,103205.30
2023-02-08T08:46:09.116Z,103203.59
2023-02-08T08:48:37.223Z,103203.71
2023-02-08T08:51:04.922Z,103204.48
2023-02-08T08:53:31.829Z,103206.17
2023-02-08T08:55:58.932Z,103204.73
2023-02-08T08:58:25.919Z,103204.53
2023-02-08T09:00:54.262Z,103205.05
2023-02-08T09:03:21.236Z,103202.89
2023-02-08T09:05:48.193Z,103203.99
2023-02-08T09:08:15.224Z,103204.02
2023-02-08T09:10:42.464Z,103202.66
2023-02-08T09:13:10.631Z,103204.55
2023-02-08T09:15:41.717Z,103212.04
2023-02-08T09:18:08.614Z,103209.46
2023-02-08T09:20:38.320Z,103210.39
2023-02-08T09:23:05.481Z,103209.28
2023-02-08T09:25:33.642Z,103209.82
2023-02-08T09:28:00.705Z,103208.63
2023-02-08T09:30:27.625Z,103214.02
2023-02-08T09:32:54.519Z,103213.25
2023-02-08T09:35:21.407Z,103210.91
2023-02-08T09:37:48.288Z,103210.88
2023-02-08T09:40:25.303Z,103211.95
2023-02-08T09:43:01.686Z,103213.25
2023-02-08T09:46:03.575Z,103215.61
2023-02-08T09:48:39.622Z,103216.86
2023-02-08T09:51:29.195Z,103212.25
2023-02-08T09:54:07.577Z,103208.63
2023-02-08T09:56:40.713Z,103206.72
2023-02-08T09:59:16.245Z,103211.70
2023-02-08T10:01:43.605Z,103213.86
2023-02-08T10:04:40.323Z,103215.23
2023-02-08T10:07:11.345Z,103209.58
2023-02-08T10:09:38.651Z,103206.01
2023-02-08T10:12:41.209Z,103210.34
2023-02-08T10:15:23.193Z,103210.95
2023-02-08T10:17:59.303Z,103216.60
2023-02-08T10:20:38.640Z,103214.98
2023-02-08T10:23:22.426Z,103213.91
2023-02-08T10:26:08.506Z,103211.08
2023-02-08T10:28:49.318Z,103208.92
2023-02-08T10:31:35.104Z,103205.23
2023-02-08T10:34:16.934Z,103208.58
2023-02-08T10:36:44.295Z,103213.48
2023-02-08T10:39:22.614Z,103212.63
2023-02-08T10:41:51.615Z,103208.33
2023-02-08T10:44:40.003Z,103204.08
2023-02-08T10:47:47.311Z,103204.45
2023-02-08T10:50:21.576Z,103201.73
2023-02-08T10:52:49.392Z,103202.78
2023-02-08T10:55:19.684Z,103200.91
2023-02-08T10:57:49.639Z,103194.89
2023-02-08T11:00:21.327Z,103194.77
2023-02-08T11:02:52.857Z,103196.59
2023-02-08T11:05:23.486Z,103191.92
2023-02-08T11:08:09.638Z,103194.16
2023-02-08T11:10:39.534Z,103188.55
2023-02-08T11:13:20.084Z,103187.23
2023-02-08T11:16:02.684Z,103186.54
2023-02-08T11:18:34.469Z,103185.86
2023-02-08T11:21:08.390Z,103189.94
2023-02-08T11:23:40.219Z,103186.94
2023-02-08T11:26:23.004Z,103188.52
2023-02-08T11:29:06.239Z,103188.10
2023-02-08T11:31:35.362Z,103186.39
2023-02-08T11:34:11.635Z,103182.88
2023-02-08T11:36:48.880Z,103181.05
2023-02-08T11:39:26.775Z,103179.67
2023-02-08T11:41:58.342Z,103183.48
2023-02-08T11:44:32.724Z,103185.07
2023-02-08T11:47:02.884Z,103186.59
2023-02-08T11:49:54.375Z,103189.48
2023-02-08T11:52:25.139Z,103183.69
2023-02-08T11:54:53.241Z,103179.96
2023-02-08T11:57:28.088Z,103179.95
2023-02-08T12:00:18.006Z,103179.12
2023-02-08T12:02:46.638Z,103176.86
2023-02-08T12:05:18.090Z,103178.88
2023-02-08T12:08:00.052Z,103172.02
2023-02-08T12:10:27.101Z,103172.95
2023-02-08T12:13:09.095Z,103173.61
2023-02-08T12:15:57.788Z,103175.48
2023-02-08T12:18:44.158Z,103181.17
2023-02-08T12:21:17.340Z,103184.30
2023-02-08T12:23:50.674Z,103177.20
2023-02-08T12:26:25.965Z,103180.27
2023-02-08T12:28:55.850Z,103171.79
2023-02-08T12:31:25.618Z,103171.38
2023-02-08T12:34:04.491Z,103174.88
2023-02-08T12:36:50.018Z,103170.86
2023-02-08T12:39:58.668Z,103169.56
2023-02-08T12:42:34.377Z,103164.88
2023-02-08T12:45:28.179Z,103162.83
2023-02-08T12:48:05.096Z,103157.52
2023-02-08T12:51:01.829Z,103152.61
2023-02-08T12:53:38.032Z,103150.67
2023-02-08T12:56:13.457Z,103150.38
2023-02-08T12:58:48.556Z,103148.72
2023-02-08T13:01:21.509Z,103144.02
2023-02-08T13:04:04.241Z,103137.68
2023-02-08T13:06:39.762Z,103136.66
2023-02-08T13:09:49.163Z,103132.74
2023-02-08T13:12:24.145Z,103132.34
2023-02-08T13:14:57.748Z,103130.31
2023-02-08T13:17:29.923Z,103126.35
2023-02-08T13:20:20.399Z,103130.63
2023-02-08T13:22:48.679Z,103128.16
2023-02-08T13:25:23.928Z,103126.84
2023-02-08T13:27:51.846Z,103123.70
2023-02-08T13:30:20.999Z,103122.73
2023-02-08T13:32:50.945Z,103123.61
2023-02-08T13:35:20.430Z,103124.86
2023-02-08T13:38:22.821Z,103121.66
2023-02-08T13:41:15.177Z,103118.64
2023-02-08T13:43:55.263Z,103116.08
2023-02-08T13:46:24.950Z,103114.21
2023-02-08T13:49:02.536Z,103114.34
2023-02-08T13:51:35.567Z,103111.97
2023-02-08T13:54:02.444Z,103112.95
2023-02-08T13:56:52.314Z,103117.45
2023-02-08T13:59:34.251Z,103118.22
2023-02-08T14:02:14.135Z,103116.29
2023-02-08T14:04:50.613Z,103110.45
2023-02-08T14:07:24.320Z,103111.27
2023-02-08T14:09:54.003Z,103112.59
2023-02-08T14:12:28.220Z,103114.80
2023-02-08T14:15:16.462Z,103118.08
2023-02-08T14:17:49.847Z,103118.11
2023-02-08T14:20:22.343Z,103116.67
2023-02-08T14:22:52.791Z,103112.67
2023-02-08T14:25:43.734Z,103115.83
2023-02-08T14:28:26.613Z,103115.90
2023-02-08T14:30:59.091Z,103110.66
2023-02-08T14:33:34.259Z,103109.06
2023-02-08T14:36:07.609Z,103111.31
2023-02-08T14:38:51.847Z,103109.32
2023-02-08T14:42:09.077Z,103105.89
2023-02-08T14:44:38.850Z,103107.38
2023-02-08T14:47:27.109Z,103110.33
2023-02-08T14:50:16.973Z,103108.88
2023-02-08T14:52:48.648Z,103108.52
2023-02-08T14:55:20.369Z,103107.05
2023-02-08T14:57:48.040Z,103108.69
2023-02-08T15:00:23.304Z,103109.61
2023-02-08T15:02:50.860Z,103106.66
2023-02-08T15:05:34.198Z,103114.31
2023-02-08T15:08:02.289Z,103113.21
2023-02-08T15:10:30.721Z,103114.17
2023-02-08T15:13:02.548Z,103112.98
2023-02-08T15:15:39.756Z,103109.52
2023-02-08T15:18:18.687Z,103108.90
2023-02-08T15:20:56.183Z,103110.26
2023-02-08T15:23:24.773Z,103113.04
2023-02-08T15:26:23.448Z,103118.39
2023-02-08T15:28:50.404Z,103119.07
2023-02-08T15:31:30.503Z,103111.84
2023-02-08T15:33:59.662Z,103105.98
2023-02-08T15:36:34.274Z,103107.98
2023-02-08T15:39:10.230Z,103105.11
2023-02-08T15:41:38.399Z,103100.44
2023-02-08T15:44:23.761Z,103096.75
2023-02-08T15:46:55.918Z,103097.27
2023-02-08T15:49:29.041Z,103095.13
2023-02-08T15:51:57.242Z,103093.20
2023-02-08T15:54:25.109Z,103092.10
2023-02-08T15:56:59.648Z,103086.88
2023-02-08T15:59:33.216Z,103077.20
2023-02-08T16:02:28.372Z,103075.16
2023-02-08T16:04:56.991Z,103077.30
2023-02-08T16:07:48.211Z,103079.15
2023-02-08T16:10:52.905Z,103076.08
2023-02-08T16:13:28.048Z,103067.54
2023-02-08T16:16:08.614Z,103069.58
2023-02-08T16:18:57.455Z,103073.63
2023-02-08T16:21:43.242Z,103074.84
2023-02-08T16:24:13.476Z,103070.94
2023-02-08T16:26:56.680Z,103074.71
2023-02-08T16:29:31.413Z,103076.95
2023-02-08T16:32:20.749Z,103075.50
2023-02-08T16:34:48.029Z,103076.85
2023-02-08T16:37:26.789Z,103074.80
2023-02-08T16:40:00.767Z,103071.34
2023-02-08T16:42:30.880Z,103070.59
2023-02-08T16:45:20.704Z,103068.11
2023-02-08T16:47:56.784Z,103070.06
2023-02-08T16:50:26.466Z,103064.95
2023-02-08T16:53:02.592Z,103062.98
2023-02-08T16:55:31.946Z,103066.23
2023-02-08T16:57:59.670Z,103060.95
2023-02-08T17:00:35.452Z,103057.48
2023-02-08T17:03:02.789Z,103061.88
2023-02-08T17:05:37.912Z,103061.52
2023-02-08T17:08:08.907Z,103055.49
2023-02-08T17:10:36.331Z,103053.23
2023-02-08T17:13:19.347Z,103052.64
2023-02-08T17:15:49.235Z,103046.91
2023-02-08T17:18:17.239Z,103043.80
2023-02-08T17:20:45.016Z,103038.59
2023-02-08T17:23:13.173Z,103036.78
2023-02-08T17:25:40.308Z,103031.83
2023-02-08T17:28:12.216Z,103031.63
2023-02-08T17:30:41.621Z,103038.94
2023-02-08T17:33:10.394Z,103043.55
2023-02-08T17:35:39.193Z,103047.44
2023-02-08T17:38:06.579Z,103050.30
2023-02-08T17:40:38.605Z,103049.06
2023-02-08T17:43:06.770Z,103041.65
2023-02-08T17:45:42.231Z,103041.00
2023-02-08T17:48:10.313Z,103040.83
2023-02-08T17:50:37.361Z,103036.46
2023-02-08T17:53:04.448Z,103038.95
2023-02-08T17:55:31.779Z,103035.42
2023-02-08T17:57:58.897Z,103035.44
2023-02-08T18:00:26.316Z,103036.02
2023-02-08T18:02:55.048Z,103038.31
2023-02-08T18:05:27.873Z,103039.33
2023-02-08T18:07:56.650Z,103041.52
2023-02-08T18:10:25.086Z,103039.92
2023-02-08T18:12:52.419Z,103033.36
2023-02-08T18:15:21.604Z,103038.33
2023-02-08T18:17:50.693Z,103043.95
2023-02-08T18:20:18.666Z,103037.03
2023-02-08T18:22:46.652Z,103033.25
2023-02-08T18:25:16.078Z,103037.20
2023-02-08T18:27:43.062Z,103038.19
2023-02-08T18:30:11.582Z,103038.08
2023-02-08T18:32:38.848Z,103036.68
2023-02-08T18:35:07.685Z,103036.06
2023-02-08T18:37:36.459Z,103039.39
2023-02-08T18:40:04.721Z,103043.56
2023-02-08T18:42:33.412Z,103042.00
2023-02-08T18:45:01.441Z,103036.41
2023-02-08T18:47:28.396Z,103042.27
2023-02-08T18:49:56.688Z,103044.04
2023-02-08T18:52:26.315Z,103039.77
2023-02-08T18:54:53.371Z,103037.38
2023-02-08T18:57:21.063Z,103036.31
2023-02-08T18:59:48.189Z,103036.19
2023-02-08T19:02:21.325Z,103037.30
2023-02-08T19:04:48.962Z,103036.44
2023-02-08T19:07:16.429Z,103035.71
2023-02-08T19:09:44.287Z,103033.67
2023-02-08T19:12:15.819Z,103038.15
2023-02-08T19:14:43.994Z,103037.48
2023-02-08T19:17:13.592Z,103037.58
2023-02-08T19:19:42.220Z,103032.91
2023-02-08T19:22:10.186Z,103024.96
2023-02-08T19:24:37.363Z,103023.39
2023-02-08T19:27:04.534Z,103023.33
2023-02-08T19:29:34.061Z,103019.61
2023-02-08T19:32:01.563Z,103020.41
2023-02-08T19:34:29.139Z,103020.61
2023-02-08T19:36:56.201Z,103021.31
2023-02-08T19:39:28.091Z,103019.77
2023-02-08T19:41:55.975Z,103015.90
2023-02-08T19:44:23.643Z,103011.93
2023-02-08T19:46:54.144Z,103011.10
2023-02-08T19:49:22.692Z,103011.67
2023-02-08T19:51:50.406Z,103013.29
2023-02-08T19:54:19.400Z,103013.95
2023-02-08T19:56:47.787Z,103019.36
2023-02-08T19:59:21.327Z,103015.86
2023-02-08T20:01:48.426Z,103011.92
2023-02-08T20:04:16.396Z,103015.63
2023-02-08T20:06:45.189Z,103016.46
2023-02-08T20:09:13.877Z,103016.92
2023-02-08T20:11:54.971Z,103019.02
2023-02-08T20:14:24.133Z,103020.05
2023-02-08T20:16:51.699Z,103014.94
2023-02-08T20:19:19.591Z,103004.52
2023-02-08T20:21:46.639Z,103003.09
2023-02-08T20:24:14.539Z,103005.38
2023-02-08T20:26:44.156Z,103008.98
2023-02-08T20:29:11.272Z,103009.16
2023-02-08T20:31:41.160Z,103008.59
2023-02-08T20:34:12.961Z,103008.89
2023-02-08T20:36:49.539Z,103004.42
2023-02-08T20:39:20.820Z,103001.17
2023-02-08T20:41:48.338Z,102998.10
2023-02-08T20:44:18.153Z,103001.93
2023-02-08T20:46:46.746Z,103006.61
2023-02-08T20:49:15.525Z,103004.25
2023-02-08T20:51:44.121Z,102999.23
2023-02-08T20:54:11.791Z,102998.62
2023-02-08T20:56:40.070Z,102994.81
2023-02-08T20:59:10.942Z,102987.27
2023-02-08T21:01:38.830Z,102986.90
2023-02-08T21:04:05.946Z,102989.84
2023-02-08T21:06:35.808Z,102988.06
2023-02-08T21:09:06.678Z,102985.38
2023-02-08T21:11:34.663Z,102988.42
2023-02-08T21:14:02.559Z,102990.27
2023-02-08T21:16:32.257Z,102991.29
2023-02-08T21:19:02.196Z,102988.84
2023-02-08T21:21:30.146Z,102988.76
2023-02-08T21:23:58.135Z,102988.86
2023-02-08T21:26:26.490Z,102986.20
2023-02-08T21:28:55.913Z,102980.86
2023-02-08T21:31:23.915Z,102976.70
2023-02-08T21:33:52.086Z,102972.36
2023-02-08T21:36:23.825Z,102974.55
2023-02-08T21:38:51.456Z,102975.09
2023-02-08T21:41:30.628Z,102977.89
2023-02-08T21:43:59.516Z,102977.32
2023-02-08T21:46:28.484Z,102979.06
2023-02-08T21:49:15.717Z,102979.98
2023-02-08T21:52:03.261Z,102978.40
2023-02-08T21:54:43.066Z,102973.56
2023-02-08T21:57:10.042Z,102971.46
2023-02-08T21:59:37.818Z,102966.80
2023-02-08T22:02:25.921Z,102957.02
2023-02-08T22:05:14.485Z,102949.78
2023-02-08T22:07:44.937Z,102947.32
2023-02-08T22:10:13.898Z,102950.02
2023-02-08T22:12:42.220Z,102951.12
2023-02-08T22:15:14.635Z,102940.45
2023-02-08T22:17:41.918Z,102937.89
2023-02-08T22:20:10.344Z,102936.52
2023-02-08T22:22:37.658Z,102938.04
2023-02-08T22:25:05.136Z,102935.19
2023-02-08T22:27:32.275Z,102934.94
2023-02-08T22:29:59.433Z,102932.13
2023-02-08T22:32:26.495Z,102928.02
2023-02-08T22:34:53.740Z,102927.91
2023-02-08T22:37:20.754Z,102927.41
2023-02-08T22:39:47.957Z,102922.55
2023-02-08T22:42:15.218Z,102919.52
2023-02-08T22:44:44.538Z,102915.48
2023-02-08T22:47:13.426Z,102909.86
2023-02-08T22:49:40.884Z,102897.75
2023-02-08T22:52:08.952Z,102888.46
2023-02-08T22:54:36.326Z,102885.88
2023-02-08T22:57:04.587Z,102881.62
2023-02-08T22:59:32.164Z,102880.05
2023-02-08T23:02:00.471Z,102877.91
2023-02-08T23:04:28.204Z,102878.13
2023-02-08T23:06:55.677Z,102876.48
2023-02-08T23:09:23.358Z,102873.05
2023-02-08T23:11:51.001Z,102873.84
2023-02-08T23:14:18.486Z,102870.16
2023-02-08T23:16:45.732Z,102868.12
2023-02-08T23:19:18.019Z,102868.20
2023-02-08T23:21:45.084Z,102859.14
2023-02-08T23:24:12.543Z,102853.85
2023-02-08T23:26:39.976Z,102851.38
2023-02-08T23:29:07.014Z,102850.67
2023-02-08T23:31:34.463Z,102853.62
2023-02-08T23:34:01.624Z,102849.56
2023-02-08T23:36:28.589Z,102847.92
2023-02-08T23:38:55.529Z,102847.91
2023-02-08T23:41:23.813Z,102842.32
2023-02-08T23:43:54.775Z,102846.66
2023-02-08T23:46:24.714Z,102849.83
2023-02-08T23:48:52.342Z,102854.52
2023-02-08T23:51:20.867Z,102855.32
2023-02-08T23:53:48.603Z,102853.41
2023-02-08T23:56:20.064Z,102852.21
2023-02-08T23:58:49.866Z,102854.15
